Weather at Paramillo Airport

Public forecast

Using degrees Celsius for public forecast. Weather courtesy of forecast.io.

Closest aviation weather report (METAR) to Paramillo Airport

Closest report is Camilo Daza International Airport, 19.9 nm (36.8 km) WNW.

2024/05/26 23:00 (retrieved 51 minutes ago)

SKCC 262300Z 30004KT 9999 SCT017TCU BKN070 30/23 Q1012 RMK TCU/S/W

Closest aviation forecast (TAF) to Paramillo Airport

Forecast is more than 6 hours old.

Closest forecast is San Antonio Del Tachira Airport, 14.3 nm (26.5 km) W.

2024/05/26 12:03 (retrieved 12 hours ago)

TAF TAF SVSA 261000Z 2612/2712 05007KT 9999 BKN020 TX30/2618Z TN16/2708Z TEMPO 2614/2618 15005KT 8000 RA OVC020